createdAt,value
2022-09-10T00:03:23.710Z,75.64
2022-09-10T00:13:30.808Z,75.75
2022-09-10T00:23:38.812Z,76.31
2022-09-10T00:33:46.426Z,76.23
2022-09-10T00:43:54.835Z,76.09
2022-09-10T00:54:03.822Z,76.35
2022-09-10T01:04:10.860Z,76.25
2022-09-10T01:14:33.909Z,76.57
2022-09-10T01:24:57.151Z,76.86
2022-09-10T01:35:06.651Z,76.79
2022-09-10T01:45:14.848Z,76.95
2022-09-10T01:55:30.274Z,76.98
2022-09-10T02:05:37.867Z,77.49
2022-09-10T02:15:45.643Z,77.80
2022-09-10T02:25:51.812Z,77.68
2022-09-10T02:35:59.424Z,77.84
2022-09-10T02:46:06.716Z,77.82
2022-09-10T02:56:13.823Z,77.98
2022-09-10T03:06:21.540Z,77.84
2022-09-10T03:16:28.772Z,78.30
2022-09-10T03:26:36.346Z,78.39
2022-09-10T03:36:43.547Z,78.29
2022-09-10T03:46:51.441Z,78.53
2022-09-10T03:56:59.550Z,78.63
2022-09-10T04:07:05.635Z,78.79
2022-09-10T04:17:12.867Z,78.76
2022-09-10T04:27:19.772Z,78.91
2022-09-10T04:37:28.208Z,79.07
2022-09-10T04:47:35.364Z,79.36
2022-09-10T04:57:42.386Z,79.37
2022-09-10T05:07:49.226Z,79.56
2022-09-10T05:17:56.375Z,79.48
2022-09-10T05:28:05.894Z,79.51
2022-09-10T05:38:12.884Z,79.55
2022-09-10T05:48:20.070Z,79.76
2022-09-10T05:58:27.882Z,80.08
2022-09-10T06:08:36.259Z,80.34
2022-09-10T06:18:47.013Z,80.28
2022-09-10T06:28:53.684Z,80.19
2022-09-10T06:39:02.243Z,80.30
2022-09-10T06:49:09.377Z,80.51
2022-09-10T06:59:18.549Z,80.75
2022-09-10T07:09:25.557Z,80.48
2022-09-10T07:19:33.531Z,80.63
2022-09-10T07:29:40.651Z,80.86
2022-09-10T07:39:47.745Z,80.61
2022-09-10T07:49:55.020Z,80.51
2022-09-10T08:00:02.832Z,80.23
2022-09-10T08:10:12.443Z,80.33
2022-09-10T08:20:19.752Z,80.37
2022-09-10T08:30:27.307Z,80.35
2022-09-10T08:40:34.842Z,79.95
2022-09-10T08:50:47.848Z,79.87
2022-09-10T09:00:59.162Z,79.88
2022-09-10T09:11:05.906Z,79.67
2022-09-10T09:21:17.272Z,79.47
2022-09-10T09:31:28.887Z,79.11
2022-09-10T09:41:43.663Z,78.93
2022-09-10T09:51:52.396Z,78.57
2022-09-10T10:02:06.843Z,78.77
2022-09-10T10:12:19.793Z,78.27
2022-09-10T10:22:26.057Z,77.74
2022-09-10T10:32:35.378Z,77.41
2022-09-10T10:42:47.615Z,77.12
2022-09-10T10:52:58.915Z,76.14
2022-09-10T11:03:13.793Z,75.24
2022-09-10T11:13:23.707Z,74.50
2022-09-10T11:23:29.752Z,73.91
2022-09-10T11:33:37.908Z,73.66
2022-09-10T11:43:47.054Z,72.98
2022-09-10T11:53:55.116Z,71.94
2022-09-10T12:04:07.492Z,70.97
2022-09-10T12:14:14.832Z,70.74
2022-09-10T12:24:24.929Z,70.82
2022-09-10T12:34:31.935Z,70.65
2022-09-10T12:44:56.465Z,70.65
2022-09-10T12:55:01.592Z,70.59
2022-09-10T13:05:20.542Z,70.29
2022-09-10T13:15:31.594Z,69.72
2022-09-10T13:25:37.092Z,69.41
2022-09-10T13:35:58.585Z,69.11
2022-09-10T13:46:06.827Z,69.15
2022-09-10T13:56:18.152Z,69.30
2022-09-10T14:06:26.672Z,69.32
2022-09-10T14:16:38.296Z,69.13
2022-09-10T14:27:07.760Z,68.94
2022-09-10T14:37:38.131Z,68.60
2022-09-10T14:47:54.533Z,68.42
2022-09-10T14:58:01.850Z,67.97
2022-09-10T15:08:09.138Z,68.07
2022-09-10T15:18:14.201Z,68.42
2022-09-10T15:28:21.247Z,69.02
2022-09-10T15:38:28.821Z,69.48
2022-09-10T15:48:36.726Z,69.62
2022-09-10T15:58:48.965Z,69.70
2022-09-10T16:08:57.283Z,70.46
2022-09-10T16:19:05.739Z,70.62
2022-09-10T16:29:13.563Z,71.72
2022-09-10T16:39:22.344Z,72.39
2022-09-10T16:49:29.554Z,73.00
2022-09-10T16:59:36.793Z,73.29
2022-09-10T17:09:44.553Z,73.62
2022-09-10T17:19:51.629Z,73.89
2022-09-10T17:29:58.639Z,74.39
2022-09-10T17:40:04.556Z,74.69
2022-09-10T17:50:11.451Z,75.12
2022-09-10T18:00:16.439Z,75.78
2022-09-10T18:10:23.377Z,75.84
2022-09-10T18:20:30.182Z,76.00
2022-09-10T18:30:38.340Z,76.24
2022-09-10T18:40:45.289Z,76.41
2022-09-10T18:50:52.364Z,76.79
2022-09-10T19:01:04.919Z,76.96
2022-09-10T19:11:17.453Z,76.94
2022-09-10T19:21:27.158Z,76.93
2022-09-10T19:31:36.466Z,77.32
2022-09-10T19:41:45.436Z,77.65
2022-09-10T19:51:50.952Z,77.80
2022-09-10T20:01:58.090Z,78.33
2022-09-10T20:12:04.622Z,78.30
2022-09-10T20:22:12.466Z,78.55
2022-09-10T20:32:19.520Z,78.66
2022-09-10T20:42:28.142Z,78.99
2022-09-10T20:52:37.859Z,79.20
2022-09-10T21:02:46.913Z,79.43
2022-09-10T21:12:52.901Z,79.63
2022-09-10T21:23:00.052Z,79.59
2022-09-10T21:33:07.271Z,79.75
2022-09-10T21:43:15.055Z,79.77
2022-09-10T21:53:22.799Z,79.69
2022-09-10T22:03:31.224Z,79.95
2022-09-10T22:13:38.206Z,79.96
2022-09-10T22:23:44.780Z,80.10
2022-09-10T22:33:57.242Z,80.17
2022-09-10T22:44:03.495Z,80.22
2022-09-10T22:54:10.810Z,80.24
2022-09-10T23:04:18.175Z,80.39
2022-09-10T23:14:26.126Z,80.52
2022-09-10T23:24:33.206Z,80.73
2022-09-10T23:34:40.389Z,80.54
2022-09-10T23:44:47.516Z,80.71
2022-09-10T23:54:55.086Z,80.70
